CW9274 Weather Reports


Display with metric or nautical units.
time (UTC)temp
F
wind
direction
speed
MPH
gust
MPH
rain 1hr
in
rain 24hr
in
rain mn
in
humidity
%
barometer
mb
20210924004406 57 63 2.0 8.0 0.00 0.00 0.00 42 1019.2
20210924003907 58 102 3.0 9.0 0.00 0.00 0.00 42 1019.0
20210924003405 58 73 2.0 5.0 0.00 0.00 0.00 41 1019.0
20210924002905 59 70 2.0 7.0 0.00 0.00 0.00 41 1019.0
20210924002406 59 84 2.0 7.0 0.00 0.00 0.00 41 1019.0
20210924001906 59 87 2.0 3.0 0.00 0.00 0.00 40 1018.8
20210924001406 59 116 2.0 3.0 0.00 0.00 0.00 41 1018.8
20210924000906 59 92 2.0 6.0 0.00 0.00 0.00 40 1018.7
20210924000405 59 96 3.0 6.0 0.00 0.00 0.00 40 1018.7
20210923235905 60 105 3.0 6.0 0.00 0.00 0.00 39 1018.7
20210923235406 60 71 2.0 6.0 0.00 0.00 0.00 40 1018.7
20210923234905 60 113 2.0 5.0 0.00 0.00 0.00 40 1018.6
20210923234406 60 86 1.0 7.0 0.00 0.00 0.00 40 1018.5
20210923233905 60 137 2.0 6.0 0.00 0.00 0.00 40 1018.5
20210923233406 60 141 2.0 5.0 0.00 0.00 0.00 40 1018.4
20210923232906 60 140 2.0 3.0 0.00 0.00 0.00 39 1018.4
20210923232406 59 136 3.0 6.0 0.00 0.00 0.00 40 1018.3
20210923231909 59 145 5.0 7.0 0.00 0.00 0.00 40 1018.3
20210923231407 59 122 5.0 9.0 0.00 0.00 0.00 39 1018.2
20210923230908 60 136 2.0 5.0 0.00 0.00 0.00 39 1018.2
20210923230407 60 135 3.0 7.0 0.00 0.00 0.00 40 1018.2
20210923225907 60 139 3.0 7.0 0.00 0.00 0.00 39 1018.3
20210923225407 59 178 3.0 5.0 0.00 0.00 0.00 39 1018.3
20210923224909 60 147 5.0 8.0 0.00 0.00 0.00 39 1018.2
20210923224408 59 153 4.0 7.0 0.00 0.00 0.00 40 1018.2
20210923223908 59 157 4.0 7.0 0.00 0.00 0.00 40 1018.2
20210923223405 59 138 5.0 7.0 0.00 0.00 0.00 40 1018.2
20210923222910 59 128 3.0 7.0 0.00 0.00 0.00 39 1018.2
20210923222405 59 177 2.0 8.0 0.00 0.00 0.00 41 1018.2
20210923221906 59 146 5.0 9.0 0.00 0.00 0.00 40 1018.2
20210923221407 59 157 1.0 6.0 0.00 0.00 0.00 41 1018.3
20210923220906 59 78 2.0 3.0 0.00 0.00 0.00 41 1018.3
20210923220407 58 113 5.0 9.0 0.00 0.00 0.00 42 1018.3
20210923215906 58 142 4.0 8.0 0.00 0.00 0.00 42 1018.2
20210923215406 58 145 3.0 8.0 0.00 0.00 0.00 42 1018.2
20210923214905 58 137 3.0 9.0 0.00 0.00 0.00 42 1018.2
20210923214407 58 206 3.0 8.0 0.00 0.00 0.00 41 1018.3
20210923213906 58 125 3.0 8.0 0.00 0.00 0.00 42 1018.1
20210923213406 58 138 4.0 10.0 0.00 0.00 0.00 41 1018.2
20210923212906 58 162 5.0 8.0 0.00 0.00 0.00 43 1018.2
20210923212405 58 122 3.0 7.0 0.00 0.00 0.00 43 1018.3
20210923211906 58 64 2.0 8.0 0.00 0.00 0.00 42 1018.3
20210923211405 57 57 1.0 5.0 0.00 0.00 0.00 43 1018.5
20210923210905 57 180 3.0 12.0 0.00 0.00 0.00 44 1018.4
20210923210405 57 167 5.0 10.0 0.00 0.00 0.00 44 1018.4
20210923205906 56 149 6.0 9.0 0.00 0.00 0.00 43 1018.4
20210923205406 56 224 3.0 6.0 0.00 0.00 0.00 45 1018.4
20210923204905 56 99 2.0 8.0 0.00 0.00 0.00 44 1018.4
20210923204405 55 0 6.0 10.0 0.00 0.00 0.00 46 1018.4
20210923203906 54 0 3.0 6.0 0.00 0.00 0.00 47 1018.4
20210923203407 54 124 3.0 5.0 0.00 0.00 0.00 47 1018.5
20210923202905 54 164 5.0 9.0 0.00 0.00 0.00 46 1018.5
20210923202406 54 131 3.0 9.0 0.00 0.00 0.00 46 1018.4
20210923201906 54 125 6.0 9.0 0.00 0.00 0.00 46 1018.4
20210923201407 54 149 4.0 8.0 0.00 0.00 0.00 47 1018.4
20210923200905 54 267 4.0 8.0 0.00 0.00 0.00 46 1018.5
20210923200406 54 148 3.0 7.0 0.00 0.00 0.00 47 1018.5
20210923195905 54 112 5.0 8.0 0.00 0.00 0.00 46 1018.5
20210923195405 54 131 4.0 10.0 0.00 0.00 0.00 46 1018.5
20210923194905 55 107 6.0 10.0 0.00 0.00 0.00 45 1018.6
20210923194406 54 141 1.0 5.0 0.00 0.00 0.00 47 1018.6
20210923193907 54 0 4.0 6.0 0.00 0.00 0.00 47 1018.8
20210923193406 54 0 4.0 9.0 0.00 0.00 0.00 46 1018.7
20210923192906 54 0 4.0 12.0 0.00 0.00 0.00 48 1018.5
20210923192405 54 0 4.0 9.0 0.00 0.00 0.00 47 1018.5
20210923191906 53 0 4.0 8.0 0.00 0.00 0.00 48 1018.4
20210923191405 53 0 6.0 12.0 0.00 0.00 0.00 47 1018.4
20210923190905 53 0 3.0 8.0 0.00 0.00 0.00 48 1018.4
20210923190405 52 0 3.0 8.0 0.00 0.00 0.00 49 1018.4
20210923185905 52 0 5.0 8.0 0.00 0.00 0.00 49 1018.4
20210923185406 52 0 5.0 9.0 0.00 0.00 0.00 50 1018.3
20210923184905 52 0 4.0 10.0 0.00 0.00 0.00 51 1018.3
20210923184406 52 0 3.0 9.0 0.00 0.00 0.00 51 1018.3
20210923183905 51 0 6.0 12.0 0.00 0.00 0.00 50 1018.2
20210923183406 51 0 3.0 12.0 0.00 0.00 0.00 51 1018.3
20210923182906 51 0 2.0 6.0 0.00 0.00 0.00 52 1018.3
20210923182405 51 0 3.0 8.0 0.00 0.00 0.00 53 1018.3
20210923181906 50 0 3.0 6.0 0.00 0.00 0.00 52 1018.4
20210923181406 50 0 3.0 8.0 0.00 0.00 0.00 54 1018.3
20210923180908 50 0 7.0 12.0 0.00 0.00 0.00 51 1018.4
20210923180405 50 0 4.0 8.0 0.00 0.00 0.00 52 1018.5
20210923175907 50 7 2.0 10.0 0.00 0.00 0.00 53 1018.5
20210923175407 50 3 6.0 12.0 0.00 0.00 0.00 53 1018.6
20210923174906 49 49 5.0 10.0 0.00 0.00 0.00 55 1018.6
20210923174407 50 41 7.0 12.0 0.00 0.00 0.00 54 1018.6
20210923173906 49 0 5.0 9.0 0.00 0.00 0.00 55 1018.7
20210923173407 49 10 5.0 8.0 0.00 0.00 0.00 55 1018.7
20210923172908 49 0 6.0 12.0 0.00 0.00 0.00 53 1018.7
20210923172407 49 0 5.0 9.0 0.00 0.00 0.00 54 1018.8
20210923171905 49 48 9.0 12.0 0.00 0.00 0.00 53 1018.8
20210923171406 49 0 6.0 13.0 0.00 0.00 0.00 54 1018.6
20210923170906 49 0 6.0 10.0 0.00 0.00 0.00 54 1018.8
20210923170405 49 0 6.0 12.0 0.00 0.00 0.00 54 1018.8
20210923165905 48 59 6.0 10.0 0.00 0.00 0.00 55 1018.8
20210923165406 48 0 6.0 12.0 0.00 0.00 0.00 56 1018.7
20210923164905 48 18 7.0 12.0 0.00 0.00 0.00 56 1018.7
20210923164406 47 0 5.0 12.0 0.00 0.00 0.00 58 1018.7
20210923163905 47 59 7.0 14.0 0.00 0.00 0.00 57 1018.7
20210923163407 48 46 6.0 12.0 0.00 0.00 0.00 59 1018.7
20210923162905 48 0 4.0 12.0 0.00 0.00 0.00 60 1018.7
20210923162406 47 44 6.0 12.0 0.00 0.00 0.00 60 1018.6
20210923161904 47 66 7.0 14.0 0.00 0.00 0.00 60 1018.4
20210923161406 47 71 7.0 13.0 0.00 0.00 0.00 60 1018.3
20210923160905 47 49 7.0 13.0 0.00 0.00 0.00 61 1018.4
20210923160407 47 50 7.0 13.0 0.00 0.00 0.00 61 1018.3
20210923155905 48 16 9.0 16.0 0.00 0.00 0.00 60 1018.2
20210923155405 48 28 7.0 12.0 0.00 0.00 0.00 61 1018.1
20210923154905 48 30 10.0 14.0 0.00 0.00 0.00 59 1018.0
20210923154406 48 33 8.0 12.0 0.00 0.00 0.00 58 1018.0
20210923153905 49 17 12.0 16.0 0.00 0.00 0.00 54 1017.7
20210923153404 51 0 7.0 12.0 0.00 0.00 0.00 54 1017.5
20210923152906 50 0 3.0 12.0 0.00 0.00 0.00 54 1017.4
20210923152405 50 0 4.0 8.0 0.00 0.00 0.00 55 1017.3
20210923151906 49 0 4.0 8.0 0.00 0.00 0.00 55 1017.3
20210923151405 49 75 2.0 3.0 0.00 0.00 0.00 55 1017.2
20210923150905 49 83 2.0 3.0 0.00 0.00 0.00 54 1017.1
20210923150404 49 75 2.0 3.0 0.00 0.00 0.00 55 1017.3
20210923145905 48 58 1.0 3.0 0.00 0.00 0.00 55 1017.3
20210923145406 48 52 2.0 3.0 0.00 0.00 0.00 55 1017.3
20210923144906 48 63 2.0 3.0 0.00 0.00 0.00 56 1017.3
20210923144405 47 52 1.0 3.0 0.00 0.00 0.00 58 1017.3
20210923143907 47 42 1.0 2.0 0.00 0.00 0.00 59 1017.3
20210923143406 47 355 1.0 2.0 0.00 0.00 0.00 60 1017.3
20210923142905 47 295 0.0 2.0 0.00 0.00 0.00 61 1017.3
20210923142405 48 295 0.0 2.0 0.00 0.00 0.00 58 1017.3
20210923141906 47 295 1.0 2.0 0.00 0.00 0.00 58 1017.1
20210923141406 47 295 0.0 0.0 0.00 0.00 0.00 60 1017.2
20210923140905 47 295 0.0 1.0 0.00 0.00 0.00 60 1017.1
20210923140405 47 295 0.0 0.0 0.00 0.00 0.00 61 1017.0
20210923135904 46 295 1.0 2.0 0.00 0.00 0.00 62 1016.9
20210923135407 46 295 0.0 0.0 0.00 0.00 0.00 63 1016.9
20210923134906 45 295 0.0 0.0 0.00 0.00 0.00 63 1016.9
20210923134405 45 295 0.0 0.0 0.00 0.00 0.00 64 1016.8
20210923133904 45 295 0.0 0.0 0.00 0.00 0.00 64 1016.7
20210923133405 45 295 0.0 0.0 0.00 0.00 0.00 64 1016.6
20210923132906 44 295 0.0 0.0 0.00 0.00 0.00 64 1016.5
20210923132407 44 295 0.0 0.0 0.00 0.00 0.00 65 1016.4
20210923131905 44 295 0.0 0.0 0.00 0.00 0.00 66 1016.4
20210923131405 44 295 0.0 1.0 0.00 0.00 0.00 66 1016.1
20210923130906 44 295 0.0 1.0 0.00 0.00 0.00 65 1016.1
20210923130404 44 295 0.0 1.0 0.00 0.00 0.00 65 1016.1
20210923125904 45 295 0.0 2.0 0.00 0.00 0.00 65 1016.0
20210923125405 45 295 0.0 2.0 0.00 0.00 0.00 64 1015.9
20210923124905 45 310 0.0 1.0 0.00 0.00 0.00 64 1015.9
20210923124405 45 310 1.0 2.0 0.00 0.00 0.00 65 1015.7
20210923123905 45 56 1.0 2.0 0.00 0.00 0.00 63 1015.5
20210923123405 44 56 0.0 1.0 0.00 0.00 0.00 63 1015.6
20210923122905 45 56 0.0 0.0 0.00 0.00 0.00 63 1015.5
20210923122405 45 56 0.0 1.0 0.00 0.00 0.00 63 1015.5
20210923121905 45 56 1.0 2.0 0.00 0.00 0.00 64 1015.4
20210923121405 45 56 1.0 2.0 0.00 0.00 0.00 64 1015.3
20210923120905 46 56 0.0 1.0 0.00 0.00 0.00 63 1015.4
20210923120405 46 56 1.0 2.0 0.00 0.00 0.00 62 1015.4
20210923115904 47 79 0.0 1.0 0.00 0.00 0.00 59 1015.3
20210923115405 47 79 0.0 1.0 0.00 0.00 0.00 60 1015.1
20210923114905 47 79 0.0 2.0 0.00 0.00 0.00 61 1014.9
20210923114405 47 75 3.0 5.0 0.00 0.00 0.00 61 1014.8
20210923113905 47 84 1.0 3.0 0.00 0.00 0.00 62 1014.8
20210923113406 47 59 1.0 3.0 0.00 0.00 0.00 62 1014.7
20210923112906 47 57 2.0 3.0 0.00 0.00 0.00 61 1014.6
20210923112407 47 51 2.0 5.0 0.00 0.00 0.00 61 1014.7
20210923111906 46 47 2.0 5.0 0.00 0.00 0.00 60 1014.5
20210923111406 46 42 1.0 3.0 0.00 0.00 0.00 59 1014.5
20210923110905 47 42 1.0 2.0 0.00 0.00 0.00 58 1014.4
20210923110405 47 67 0.0 1.0 0.00 0.00 0.00 58 1014.4
20210923105905 47 66 2.0 3.0 0.00 0.00 0.00 58 1014.3
20210923105408 47 64 1.0 3.0 0.00 0.00 0.00 57 1014.2
20210923104905 47 32 1.0 3.0 0.00 0.00 0.00 57 1014.0
20210923104405 47 41 1.0 3.0 0.00 0.00 0.00 58 1014.0
20210923103906 47 41 2.0 3.0 0.00 0.00 0.00 58 1013.9
20210923103407 47 39 1.0 3.0 0.00 0.00 0.00 58 1013.9
20210923102905 48 58 2.0 3.0 0.00 0.00 0.00 57 1013.9
20210923102406 48 107 1.0 3.0 0.00 0.00 0.00 57 1013.9
20210923101908 48 96 1.0 3.0 0.00 0.00 0.00 56 1013.9
20210923101406 49 78 2.0 3.0 0.00 0.00 0.00 56 1013.8
20210923100905 49 78 2.0 6.0 0.00 0.00 0.00 55 1013.7
20210923100407 49 48 4.0 9.0 0.00 0.00 0.00 55 1013.6
20210923095906 49 39 5.0 7.0 0.00 0.00 0.00 54 1013.6
20210923095405 48 39 5.0 9.0 0.00 0.00 0.00 53 1013.6
20210923094906 48 23 3.0 5.0 0.00 0.00 0.00 53 1013.5
20210923094406 48 25 7.0 10.0 0.00 0.00 0.00 52 1013.5
20210923093909 48 0 2.0 5.0 0.00 0.00 0.00 51 1013.2
20210923093409 49 63 4.0 8.0 0.00 0.00 0.00 49 1013.1
20210923092907 49 276 4.0 7.0 0.00 0.00 0.00 48 1012.7
20210923092407 49 263 3.0 7.0 0.00 0.00 0.00 48 1012.6
20210923091907 49 278 5.0 7.0 0.00 0.00 0.00 49 1012.5
20210923091406 49 285 5.0 7.0 0.00 0.00 0.00 50 1012.5
20210923090907 48 323 6.0 8.0 0.00 0.00 0.00 51 1012.4
20210923090407 48 282 5.0 8.0 0.00 0.00 0.00 51 1012.3
20210923085904 48 281 5.0 6.0 0.00 0.00 0.00 52 1012.3
20210923085407 48 297 5.0 8.0 0.00 0.00 0.00 52 1012.2
20210923084906 48 0 5.0 9.0 0.00 0.00 0.00 53 1012.2
20210923084405 47 351 7.0 10.0 0.00 0.00 0.00 53 1012.1
20210923083904 48 273 5.0 7.0 0.00 0.00 0.00 52 1012.0
20210923083405 49 268 6.0 8.0 0.00 0.00 0.00 51 1012.0
20210923082904 49 279 5.0 7.0 0.00 0.00 0.00 50 1011.9
20210923082405 49 277 6.0 8.0 0.00 0.00 0.00 50 1011.9
20210923081905 49 276 6.0 8.0 0.00 0.00 0.00 51 1011.8
20210923081405 49 278 7.0 9.0 0.00 0.00 0.00 51 1011.7
20210923080904 49 275 5.0 8.0 0.00 0.00 0.00 52 1011.7
20210923080404 49 264 6.0 8.0 0.00 0.00 0.00 51 1011.8
20210923075904 50 268 6.0 8.0 0.00 0.00 0.00 50 1011.7
20210923075405 50 271 6.0 10.0 0.00 0.00 0.00 50 1011.6
20210923074905 50 280 7.0 9.0 0.00 0.00 0.00 50 1011.5
20210923074405 50 276 6.0 8.0 0.00 0.00 0.00 50 1011.4
20210923073904 51 279 6.0 8.0 0.00 0.00 0.00 49 1011.4
20210923073405 51 282 5.0 8.0 0.00 0.00 0.00 49 1011.3
20210923072904 51 290 5.0 8.0 0.00 0.00 0.00 49 1011.3
20210923072404 50 285 5.0 8.0 0.00 0.00 0.00 50 1011.3
20210923071904 50 284 5.0 9.0 0.00 0.00 0.00 50 1011.2
20210923071404 50 283 6.0 12.0 0.00 0.00 0.00 51 1011.1
20210923070905 50 279 7.0 14.0 0.00 0.00 0.00 52 1011.0
20210923070405 50 278 7.0 9.0 0.00 0.00 0.00 51 1011.0
20210923065906 50 286 6.0 10.0 0.00 0.00 0.00 51 1011.0
20210923065405 50 282 6.0 8.0 0.00 0.00 0.00 51 1011.0
20210923064904 49 296 4.0 7.0 0.00 0.00 0.00 51 1011.1
20210923064404 50 283 4.0 7.0 0.00 0.00 0.00 51 1011.0
20210923063904 50 288 6.0 7.0 0.00 0.00 0.00 51 1011.0
20210923063405 51 286 6.0 8.0 0.00 0.00 0.00 50 1010.9
20210923062904 51 288 6.0 8.0 0.00 0.00 0.00 49 1010.9
20210923062404 52 290 6.0 9.0 0.00 0.00 0.00 47 1010.8
20210923061905 53 289 8.0 12.0 0.00 0.00 0.00 47 1010.7
20210923061406 53 289 7.0 12.0 0.00 0.00 0.00 46 1010.6
20210923060906 53 289 7.0 12.0 0.00 0.00 0.00 47 1010.5
20210923060406 53 284 9.0 12.0 0.00 0.00 0.00 47 1010.5
20210923055907 53 288 9.0 13.0 0.00 0.00 0.00 47 1010.4
20210923055405 52 285 10.0 13.0 0.00 0.00 0.00 49 1010.3
20210923054905 51 289 9.0 13.0 0.00 0.00 0.00 51 1010.2
20210923054405 51 284 8.0 12.0 0.00 0.00 0.00 52 1010.2
20210923053904 51 288 7.0 9.0 0.00 0.00 0.00 53 1010.1
20210923053404 51 295 5.0 8.0 0.00 0.00 0.00 53 1010.1
20210923052904 52 294 4.0 7.0 0.00 0.00 0.00 53 1010.0
20210923052405 52 299 5.0 7.0 0.00 0.00 0.00 53 1010.0
20210923051904 51 305 3.0 7.0 0.00 0.00 0.00 54 1009.9
20210923051404 51 303 3.0 6.0 0.00 0.00 0.00 55 1009.9
20210923050904 51 0 2.0 3.0 0.00 0.00 0.00 56 1009.8
20210923050405 52 300 2.0 3.0 0.00 0.00 0.00 54 1009.8
20210923045904 53 0 3.0 5.0 0.00 0.00 0.00 52 1009.8
20210923045404 54 0 4.0 6.0 0.00 0.00 0.00 51 1009.7
20210923044904 54 0 3.0 8.0 0.00 0.00 0.00 51 1009.7
20210923044404 53 0 4.0 8.0 0.00 0.00 0.00 52 1009.7
20210923043906 53 0 3.0 5.0 0.00 0.00 0.00 52 1009.5
20210923043404 54 0 3.0 5.0 0.00 0.00 0.00 51 1009.4
20210923042907 55 0 3.0 6.0 0.00 0.00 0.00 49 1009.4
20210923042404 55 0 4.0 8.0 0.00 0.00 0.00 49 1009.2
20210923041905 55 0 5.0 9.0 0.00 0.00 0.00 50 1009.2
20210923041405 54 0 5.0 9.0 0.00 0.00 0.00 51 1009.1
20210923040904 54 0 2.0 3.0 0.00 0.00 0.00 52 1009.0
20210923040405 54 0 3.0 5.0 0.00 0.00 0.00 52 1008.8
20210923035905 53 0 4.0 6.0 0.00 0.00 0.00 53 1008.8
20210923035404 53 0 5.0 9.0 0.00 0.00 0.00 54 1008.7
20210923034905 53 0 7.0 10.0 0.00 0.00 0.00 54 1008.6
20210923034405 54 0 6.0 9.0 0.00 0.00 0.00 53 1008.6
20210923033905 56 0 5.0 8.0 0.00 0.00 0.00 51 1008.6
20210923033406 55 0 4.0 6.0 0.00 0.00 0.00 52 1008.5
20210923032908 54 0 3.0 6.0 0.00 0.00 0.00 54 1008.5
20210923032410 54 0 3.0 3.0 0.00 0.00 0.00 56 1008.4
20210923031907 54 0 2.0 3.0 0.00 0.00 0.00 57 1008.3
20210923031411 53 0 2.0 3.0 0.00 0.00 0.00 58 1008.0
20210923030907 53 277 2.0 3.0 0.00 0.00 0.00 57 1008.1
20210923030408 54 270 3.0 3.0 0.00 0.00 0.00 56 1008.1
20210923025907 54 291 2.0 3.0 0.00 0.00 0.00 56 1008.1
20210923025406 55 0 2.0 3.0 0.00 0.00 0.00 55 1008.2
20210923024905 55 288 2.0 3.0 0.00 0.00 0.00 53 1008.0
20210923024407 56 280 2.0 3.0 0.00 0.00 0.00 52 1008.0
20210923023907 57 286 3.0 6.0 0.00 0.00 0.00 50 1007.9
20210923023405 58 299 2.0 7.0 0.00 0.00 0.00 49 1007.8
20210923022906 58 300 1.0 3.0 0.00 0.00 0.00 49 1007.8
20210923022407 58 346 2.0 7.0 0.00 0.00 0.00 49 1007.7
20210923021905 58 326 1.0 2.0 0.00 0.00 0.00 48 1007.6
20210923021408 58 323 1.0 3.0 0.00 0.00 0.00 48 1007.5
20210923020906 59 323 2.0 3.0 0.00 0.00 0.00 48 1007.5
20210923020407 59 0 1.0 3.0 0.00 0.00 0.00 47 1007.4
20210923015906 59 349 2.0 3.0 0.00 0.00 0.00 46 1007.3
20210923015408 60 272 3.0 5.0 0.00 0.00 0.00 45 1007.4
20210923014906 60 265 3.0 7.0 0.00 0.00 0.00 45 1007.3
20210923014405 61 271 5.0 7.0 0.00 0.00 0.00 44 1007.4
20210923013906 61 0 3.0 6.0 0.00 0.00 0.00 44 1007.4
20210923013405 62 359 5.0 10.0 0.00 0.00 0.00 43 1007.3
20210923012905 62 356 5.0 10.0 0.00 0.00 0.00 42 1007.1
20210923012405 63 355 7.0 12.0 0.00 0.00 0.00 42 1007.0
20210923011906 64 280 7.0 12.0 0.00 0.00 0.00 40 1006.9
20210923011406 64 276 9.0 15.0 0.00 0.00 0.00 39 1007.0
20210923010405 65 273 8.0 12.0 0.00 0.00 0.00 39 1007.1
20210923005906 65 284 8.0 12.0 0.00 0.00 0.00 39 1007.1
20210923005405 66 291 8.0 12.0 0.00 0.00 0.00 39 1007.1
20210923004906 66 290 7.0 14.0 0.00 0.00 0.00 39 1007.0